This is the latest recevied weather packets stored in our database for station/object IS0HYQ-12. If no packets are shown the sender has not sent any weather packets the latest 10 day(s).
| Time | Temp. | Humidity | Pressure | Rain* | Wind** | Luminosity | Snow |
|---|---|---|---|---|---|---|---|
| 1777449194 | 24.44° C | 46% | 1011.1 hPa | - | - | - | - |
| 1777448306 | 23.89° C | 47% | 1011.1 hPa | - | - | - | - |
| 1777447406 | 22.78° C | 48% | 1011 hPa | - | - | - | - |
| 1777446493 | 22.78° C | 46% | 1010.7 hPa | - | - | - | - |
| 1777445593 | 22.78° C | 44% | 1010.6 hPa | - | - | - | - |
| 1777444692 | 21.67° C | 48% | 1010.7 hPa | - | - | - | - |
| 1777443792 | 20° C | 51% | 1011 hPa | - | - | - | - |
| 1777442892 | 18.89° C | 71% | 1011.3 hPa | - | - | - | - |
| 1777441992 | 18.89° C | 68% | 1011.5 hPa | - | - | - | - |
| 1777441091 | 18.89° C | 69% | 1011.1 hPa | - | - | - | - |
| 1777440191 | 18.33° C | 83% | 1010.9 hPa | - | - | - | - |
| 1777439291 | 17.78° C | 99% | 1011.1 hPa | - | - | - | - |
| 1777438391 | 17.78° C | 99% | 1011.5 hPa | - | - | - | - |
| 1777437491 | 17.78° C | 99% | 1011.5 hPa | - | - | - | - |
| 1777436590 | 17.78° C | 89% | 1010.9 hPa | - | - | - | - |
| 1777435690 | 18.33° C | 81% | 1010.7 hPa | - | - | - | - |
| 1777434790 | 18.33° C | 54% | 1010.5 hPa | - | - | - | - |
| 1777433002 | 18.89° C | 49% | 1010.8 hPa | - | - | - | - |
| 1777432089 | 18.89° C | 47% | 1010.8 hPa | - | - | - | - |
| 1777431189 | 19.44° C | 37% | 1010.7 hPa | - | - | - | - |
| 1777430289 | 20° C | 36% | 1010.8 hPa | - | - | - | - |
| 1777429388 | 20.56° C | 28% | 1010.8 hPa | - | - | - | - |
| 1777428488 | 20.56° C | 25% | 1010.5 hPa | - | - | - | - |
| 1777427588 | 20.56° C | 25% | 1010.6 hPa | - | - | - | - |
| 1777426688 | 20.56° C | 25% | 1010.6 hPa | - | - | - | - |
* Rain since midnight (hover to see other rain measurements)
** Current wind speed in m/s (hover to see current wind gust speed)